Time;durP1;ratioP1;P1;durP2;ratioP2;P2;SDS_P1;SDS_P2;PMS_P1;PMS_P2;Temp;Humidity;BMP_temperature;BMP_pressure;BME280_temperature;BME280_humidity;BME280_pressure;Samples;Min_cycle;Max_cycle;Signal;HPM_P1;HPM_P2
2021/06/26 00:00:54;;;;;;;8.48;5.63;;;18.80;99.90;;;;;;5019311;28;20174;-82
2021/06/26 00:03:24;;;;;;;5.80;5.30;;;18.80;99.90;;;;;;5015813;28;20192;-82
2021/06/26 00:05:50;;;;;;;6.53;5.95;;;18.90;99.90;;;;;;4999287;28;20169;-82
2021/06/26 00:08:16;;;;;;;8.93;5.93;;;18.90;99.90;;;;;;4998406;28;20173;-83
2021/06/26 00:10:43;;;;;;;7.60;5.50;;;18.80;99.90;;;;;;5012827;28;20177;-82
2021/06/26 00:13:09;;;;;;;8.25;6.40;;;18.70;99.90;;;;;;4997709;28;20193;-81
2021/06/26 00:15:35;;;;;;;7.30;6.60;;;18.90;99.90;;;;;;4997467;28;20169;-82
2021/06/26 00:18:01;;;;;;;8.80;7.03;;;18.90;99.90;;;;;;5011896;28;20219;-82
2021/06/26 00:20:27;;;;;;;7.55;6.85;;;18.90;99.90;;;;;;5012564;28;20173;-85
2021/06/26 00:22:53;;;;;;;9.07;7.00;;;19.00;99.90;;;;;;4997007;28;20197;-83
2021/06/26 00:25:22;;;;;;;9.43;6.85;;;19.00;99.90;;;;;;5011933;28;20165;-83
2021/06/26 00:27:47;;;;;;;8.20;7.40;;;18.90;99.90;;;;;;5011916;28;20169;-82
2021/06/26 00:30:13;;;;;;;8.45;7.63;;;19.00;99.90;;;;;;5011674;28;20165;-82
2021/06/26 00:32:39;;;;;;;9.98;7.85;;;19.00;99.90;;;;;;4996166;28;20556;-82
2021/06/26 00:35:05;;;;;;;9.43;7.63;;;19.20;99.90;;;;;;5011294;28;20165;-83
2021/06/26 00:37:31;;;;;;;8.45;7.65;;;18.90;99.90;;;;;;4995848;28;20223;-82
2021/06/26 00:39:56;;;;;;;9.70;7.57;;;19.00;99.90;;;;;;4996413;28;20241;-82
2021/06/26 00:42:22;;;;;;;8.40;7.68;;;18.80;99.90;;;;;;5010893;28;20243;-81
2021/06/26 00:44:48;;;;;;;7.88;7.07;;;18.90;99.90;;;;;;4996065;28;20697;-82
2021/06/26 00:47:13;;;;;;;8.98;6.90;;;18.60;99.90;;;;;;4996125;28;20598;-82
2021/06/26 00:49:40;;;;;;;8.52;6.38;;;18.70;99.90;;;;;;5011275;28;20165;-82
2021/06/26 00:52:06;;;;;;;6.90;6.20;;;18.90;99.90;;;;;;4995971;28;20280;-82
2021/06/26 00:54:33;;;;;;;10.10;6.80;;;18.90;99.90;;;;;;4996231;28;20200;-82
2021/06/26 00:57:00;;;;;;;7.72;6.90;;;18.90;99.90;;;;;;5010032;28;20215;-81
2021/06/26 00:59:27;;;;;;;7.85;7.03;;;18.80;99.90;;;;;;5010982;28;20173;-82
2021/06/26 01:01:53;;;;;;;7.97;6.47;;;18.70;99.90;;;;;;4995959;28;20216;-81
2021/06/26 01:04:18;;;;;;;7.90;7.10;;;18.60;99.90;;;;;;4996228;28;20212;-82
2021/06/26 01:06:44;;;;;;;8.00;6.07;;;18.80;99.90;;;;;;5010980;28;20169;-82
2021/06/26 01:09:10;;;;;;;7.22;6.53;;;19.10;99.90;;;;;;4995778;28;20701;-82
2021/06/26 01:11:35;;;;;;;8.98;7.28;;;19.20;99.90;;;;;;4995577;28;20169;-82
2021/06/26 01:14:02;;;;;;;9.18;6.88;;;19.30;99.90;;;;;;5010168;28;20548;-81
2021/06/26 01:16:28;;;;;;;9.98;6.97;;;19.20;99.90;;;;;;4995385;28;20601;-83
2021/06/26 01:18:53;;;;;;;13.35;6.85;;;19.20;99.90;;;;;;4995575;28;20169;-82
2021/06/26 01:21:19;;;;;;;8.43;6.25;;;19.20;99.90;;;;;;4995488;28;20178;-83
2021/06/26 01:23:46;;;;;;;8.98;5.90;;;19.10;99.90;;;;;;4995544;28;20280;-81
2021/06/26 01:26:13;;;;;;;7.38;6.65;;;18.80;99.90;;;;;;4995457;28;20165;-82
2021/06/26 01:28:39;;;;;;;6.55;5.95;;;18.80;99.90;;;;;;5010566;28;20173;-88
2021/06/26 01:31:06;;;;;;;9.15;7.00;;;18.90;99.90;;;;;;5010475;28;20173;-82
2021/06/26 01:33:31;;;;;;;8.23;6.43;;;19.00;99.90;;;;;;5009944;28;20197;-83
2021/06/26 01:35:57;;;;;;;7.35;6.65;;;18.80;99.90;;;;;;5010198;28;20173;-82
2021/06/26 01:38:23;;;;;;;7.53;6.13;;;18.60;99.90;;;;;;5010192;28;20184;-82
2021/06/26 01:40:49;;;;;;;8.60;6.18;;;18.70;99.90;;;;;;4995250;28;20173;-81
2021/06/26 01:43:14;;;;;;;7.45;6.75;;;18.70;99.90;;;;;;4995032;28;20189;-83
2021/06/26 01:45:40;;;;;;;8.20;5.85;;;18.80;99.90;;;;;;4995198;28;20606;-82
2021/06/26 01:48:07;;;;;;;6.70;6.07;;;18.70;99.90;;;;;;4995161;28;20515;-84
2021/06/26 01:50:33;;;;;;;6.70;6.10;;;18.50;99.90;;;;;;4997557;28;20170;-82
2021/06/26 01:53:00;;;;;;;8.20;6.32;;;18.40;99.90;;;;;;5002279;28;20193;-83
2021/06/26 01:55:27;;;;;;;6.15;5.57;;;18.50;99.90;;;;;;5034761;28;20225;-81
2021/06/26 01:57:53;;;;;;;9.82;5.22;;;18.40;99.90;;;;;;5033848;28;20256;-84
2021/06/26 02:00:21;;;;;;;6.80;6.10;;;18.50;99.90;;;;;;5035644;28;20245;-83
2021/06/26 02:02:47;;;;;;;6.75;5.28;;;18.50;99.90;;;;;;5013460;28;20189;-84
2021/06/26 02:05:17;;;;;;;7.38;6.68;;;18.50;99.90;;;;;;5016394;28;20170;-87
2021/06/26 02:07:43;;;;;;;5.72;5.13;;;18.50;99.90;;;;;;5011879;28;20177;-86
2021/06/26 02:10:09;;;;;;;5.90;5.30;;;18.50;99.90;;;;;;5009807;28;20177;-87
2021/06/26 02:12:35;;;;;;;9.05;5.90;;;18.50;99.90;;;;;;5009156;28;20565;-83
2021/06/26 02:15:01;;;;;;;5.70;4.97;;;18.60;99.90;;;;;;4995248;28;20161;-84
2021/06/26 02:17:27;;;;;;;9.65;5.57;;;18.60;99.90;;;;;;4994876;28;20244;-81
2021/06/26 02:19:52;;;;;;;5.07;4.65;;;18.60;99.90;;;;;;4994757;28;20687;-82
2021/06/26 02:22:18;;;;;;;6.43;5.55;;;18.60;99.90;;;;;;4994376;28;20275;-86
2021/06/26 02:24:44;;;;;;;10.45;5.13;;;18.70;99.90;;;;;;5009847;28;20175;-85
2021/06/26 02:27:10;;;;;;;5.80;5.18;;;18.80;99.90;;;;;;5009661;28;20638;-83
2021/06/26 02:29:36;;;;;;;5.95;5.45;;;18.80;99.90;;;;;;5009618;28;20247;-84
2021/06/26 02:32:03;;;;;;;8.45;5.30;;;18.80;99.90;;;;;;5009107;28;20694;-84
2021/06/26 02:34:29;;;;;;;6.45;5.07;;;18.80;99.90;;;;;;4994491;28;20165;-82
2021/06/26 02:36:55;;;;;;;10.73;5.63;;;18.70;99.90;;;;;;5009315;28;20204;-85
2021/06/26 02:39:21;;;;;;;5.15;4.65;;;18.60;99.90;;;;;;4993813;28;20641;-82
2021/06/26 02:41:46;;;;;;;5.50;4.97;;;18.70;99.90;;;;;;5009140;28;20200;-83
2021/06/26 02:44:12;;;;;;;8.77;5.53;;;18.90;99.90;;;;;;5009103;28;20173;-83
2021/06/26 02:46:37;;;;;;;9.85;5.38;;;19.00;99.90;;;;;;4994127;28;20224;-83
2021/06/26 02:49:03;;;;;;;5.95;5.22;;;18.80;99.90;;;;;;4994064;28;20177;-86
2021/06/26 02:51:29;;;;;;;4.75;4.35;;;18.70;99.90;;;;;;5009126;28;20582;-83
2021/06/26 02:53:55;;;;;;;6.07;5.47;;;18.60;99.90;;;;;;5009080;28;20228;-82
2021/06/26 02:56:21;;;;;;;10.25;6.00;;;18.60;99.90;;;;;;5009179;28;20244;-83
2021/06/26 02:58:47;;;;;;;5.63;5.13;;;18.80;99.90;;;;;;4994152;28;20181;-82
2021/06/26 03:01:12;;;;;;;10.88;5.85;;;18.70;99.90;;;;;;4993989;28;20165;-83
2021/06/26 03:03:38;;;;;;;8.77;5.28;;;18.70;99.90;;;;;;5009135;28;20292;-88
2021/06/26 03:06:04;;;;;;;6.03;5.50;;;18.70;99.90;;;;;;5008924;28;20539;-83
2021/06/26 03:08:29;;;;;;;7.32;6.43;;;18.60;99.90;;;;;;5008746;28;20220;-84
2021/06/26 03:10:55;;;;;;;7.18;5.32;;;18.80;99.90;;;;;;5008503;28;20180;-82
2021/06/26 03:13:21;;;;;;;6.75;5.20;;;18.70;99.90;;;;;;4993367;28;20193;-82
2021/06/26 03:15:46;;;;;;;6.28;5.78;;;18.80;99.90;;;;;;5008235;28;20299;-83
2021/06/26 03:18:13;;;;;;;6.18;5.57;;;18.60;99.90;;;;;;5008021;28;20169;-81
2021/06/26 03:20:38;;;;;;;5.95;4.97;;;18.60;99.90;;;;;;4992857;28;20176;-82
2021/06/26 03:23:06;;;;;;;9.68;5.70;;;18.70;99.90;;;;;;5008317;28;20280;-83
2021/06/26 03:25:32;;;;;;;8.07;6.28;;;18.80;99.90;;;;;;4993328;28;20207;-81
2021/06/26 03:27:58;;;;;;;6.05;5.53;;;18.90;99.90;;;;;;4993183;28;20500;-82
2021/06/26 03:30:23;;;;;;;4.97;4.47;;;18.70;99.90;;;;;;5008532;28;20185;-82
2021/06/26 03:32:49;;;;;;;6.72;6.13;;;18.60;99.90;;;;;;5008257;28;20348;-83
2021/06/26 03:35:15;;;;;;;6.70;5.50;;;18.50;99.90;;;;;;5008477;28;20177;-83
2021/06/26 03:37:41;;;;;;;5.90;5.10;;;18.50;99.90;;;;;;4993015;28;20271;-83
2021/06/26 03:40:07;;;;;;;8.15;5.38;;;18.40;99.90;;;;;;4992892;28;20165;-82
2021/06/26 03:42:33;;;;;;;8.45;4.90;;;18.30;99.90;;;;;;5008070;28;20197;-81
2021/06/26 03:44:59;;;;;;;7.95;4.47;;;18.20;99.90;;;;;;5007966;28;20664;-81
2021/06/26 03:47:25;;;;;;;4.93;4.53;;;18.30;99.90;;;;;;5008235;28;20185;-85
2021/06/26 03:49:52;;;;;;;5.43;4.22;;;18.10;99.90;;;;;;5008428;28;20170;-81
2021/06/26 03:52:18;;;;;;;7.05;4.10;;;18.10;99.90;;;;;;4993113;28;20765;-82
2021/06/26 03:54:43;;;;;;;16.05;4.80;;;18.00;99.90;;;;;;4993002;28;20169;-82
2021/06/26 03:57:09;;;;;;;5.07;4.57;;;18.00;99.90;;;;;;4992823;28;20200;-82
2021/06/26 03:59:35;;;;;;;4.45;4.05;;;18.30;99.90;;;;;;4992940;28;20170;-82
2021/06/26 04:02:00;;;;;;;4.90;4.25;;;18.20;99.90;;;;;;4993747;28;20599;-82
2021/06/26 04:04:26;;;;;;;5.50;4.53;;;18.30;99.90;;;;;;4994774;28;20177;-82
2021/06/26 04:06:52;;;;;;;4.40;4.03;;;18.40;99.90;;;;;;5009731;28;20177;-82
2021/06/26 04:09:17;;;;;;;4.78;4.43;;;18.20;99.90;;;;;;5009274;28;20653;-82
2021/06/26 04:11:43;;;;;;;4.70;4.30;;;18.20;99.90;;;;;;4994379;28;20161;-82
2021/06/26 04:14:09;;;;;;;5.43;4.40;;;18.30;99.90;;;;;;5009101;28;20174;-83
2021/06/26 04:16:34;;;;;;;7.53;4.72;;;18.40;99.90;;;;;;4994099;28;20649;-82
2021/06/26 04:19:00;;;;;;;5.60;4.97;;;18.30;99.90;;;;;;5010257;28;20264;-82
2021/06/26 04:21:26;;;;;;;5.97;5.03;;;18.20;99.90;;;;;;4993336;28;20578;-82
2021/06/26 04:23:52;;;;;;;5.07;4.68;;;18.00;99.90;;;;;;4993145;28;20252;-81
2021/06/26 04:26:17;;;;;;;11.02;4.65;;;18.10;99.90;;;;;;5008017;28;20184;-87
2021/06/26 04:28:43;;;;;;;4.80;4.40;;;18.20;99.90;;;;;;5008023;28;20165;-82
2021/06/26 04:31:08;;;;;;;5.18;4.65;;;18.20;99.90;;;;;;5008537;28;20511;-81
2021/06/26 04:33:34;;;;;;;8.82;6.05;;;18.40;99.90;;;;;;4997009;28;20181;-83
2021/06/26 04:36:00;;;;;;;5.22;4.72;;;18.60;99.90;;;;;;5011550;28;20537;-81
2021/06/26 04:38:25;;;;;;;6.63;4.32;;;18.40;99.90;;;;;;5011369;28;20176;-83
2021/06/26 04:40:53;;;;;;;6.40;4.72;;;18.20;99.90;;;;;;4996752;28;20189;-83
2021/06/26 04:43:19;;;;;;;8.60;4.50;;;18.10;99.90;;;;;;4996318;28;20658;-82
2021/06/26 04:45:46;;;;;;;5.85;4.13;;;18.00;99.90;;;;;;4996661;28;20176;-83
2021/06/26 04:48:15;;;;;;;7.53;4.75;;;18.10;99.90;;;;;;4995897;28;20165;-83
2021/06/26 04:50:41;;;;;;;4.95;4.55;;;18.20;99.90;;;;;;4995781;28;20169;-81
2021/06/26 04:53:06;;;;;;;5.03;4.63;;;18.30;99.90;;;;;;4996719;28;20188;-81
2021/06/26 04:55:32;;;;;;;6.97;4.35;;;18.40;99.90;;;;;;5011549;28;20178;-81
2021/06/26 04:57:58;;;;;;;6.03;4.88;;;18.50;99.90;;;;;;4997327;28;20267;-81
2021/06/26 05:00:23;;;;;;;7.18;6.22;;;18.60;99.90;;;;;;5012108;28;20252;-83
2021/06/26 05:02:49;;;;;;;5.28;4.55;;;18.70;99.90;;;;;;5012381;28;20197;-82
2021/06/26 05:05:15;;;;;;;5.10;4.60;;;18.70;99.90;;;;;;5011675;28;20205;-81
2021/06/26 05:07:40;;;;;;;6.55;4.70;;;18.30;99.90;;;;;;5012286;28;20185;-88
2021/06/26 05:10:06;;;;;;;4.32;4.00;;;18.40;99.90;;;;;;5011948;28;20207;-84
2021/06/26 05:12:32;;;;;;;8.30;3.35;;;18.30;99.90;;;;;;4995880;28;20542;-81
2021/06/26 05:14:58;;;;;;;4.00;3.60;;;18.10;99.90;;;;;;4996899;28;20177;-81
2021/06/26 05:17:23;;;;;;;4.10;3.70;;;18.40;99.90;;;;;;4996908;28;20204;-82
2021/06/26 05:19:49;;;;;;;4.82;3.70;;;18.60;99.90;;;;;;4996412;28;20700;-82
2021/06/26 05:22:15;;;;;;;4.18;3.78;;;18.30;99.90;;;;;;4996277;28;20599;-82
2021/06/26 05:24:41;;;;;;;4.93;3.90;;;17.80;99.90;;;;;;4996752;28;20165;-83
2021/06/26 05:27:07;;;;;;;3.53;3.30;;;17.90;99.90;;;;;;4997670;28;20557;-82
2021/06/26 05:29:34;;;;;;;3.70;3.40;;;18.00;99.90;;;;;;5011604;28;20621;-82
2021/06/26 05:32:00;;;;;;;3.53;3.22;;;18.20;99.90;;;;;;5011797;28;20292;-82
2021/06/26 05:34:25;;;;;;;10.60;4.57;;;18.30;99.90;;;;;;4996571;28;20228;-89
2021/06/26 05:36:51;;;;;;;5.60;5.00;;;18.30;99.90;;;;;;4997156;28;20574;-83
2021/06/26 05:39:16;;;;;;;4.70;4.30;;;18.30;99.90;;;;;;5012318;28;20177;-83
2021/06/26 05:41:42;;;;;;;4.78;3.90;;;18.20;99.90;;;;;;5012001;28;20181;-82
2021/06/26 05:44:08;;;;;;;4.28;3.88;;;18.40;99.90;;;;;;5011253;28;20187;-83
2021/06/26 05:46:33;;;;;;;8.18;3.60;;;18.60;99.90;;;;;;4997470;28;20199;-83
2021/06/26 05:48:59;;;;;;;3.55;3.25;;;18.60;99.90;;;;;;5012390;28;20588;-82
2021/06/26 05:51:25;;;;;;;3.65;3.35;;;18.50;99.90;;;;;;5011141;28;20170;-81
2021/06/26 05:53:51;;;;;;;3.15;2.95;;;18.40;99.90;;;;;;5011887;28;20673;-82
2021/06/26 05:56:16;;;;;;;5.03;3.95;;;18.70;99.90;;;;;;4996790;28;20196;-82
2021/06/26 05:58:42;;;;;;;3.50;3.20;;;18.70;99.90;;;;;;4995816;28;20177;-87
2021/06/26 06:01:12;;;;;;;7.53;3.22;;;18.70;99.90;;;;;;4995377;28;20629;-83
2021/06/26 06:03:39;;;;;;;3.92;3.55;;;18.70;99.90;;;;;;4994753;28;20677;-83
2021/06/26 06:06:05;;;;;;;3.90;3.50;;;18.60;99.90;;;;;;4994865;28;20183;-84
2021/06/26 06:08:31;;;;;;;3.88;3.20;;;18.80;99.90;;;;;;5009964;28;20610;-82
2021/06/26 06:10:59;;;;;;;3.45;3.08;;;19.00;99.90;;;;;;5010388;28;20664;-82
2021/06/26 06:13:24;;;;;;;3.08;2.72;;;19.00;99.90;;;;;;4994707;28;20654;-83
2021/06/26 06:15:51;;;;;;;3.50;3.20;;;19.10;99.90;;;;;;4994465;28;20183;-82
2021/06/26 06:18:18;;;;;;;5.82;3.33;;;19.20;99.90;;;;;;4994487;28;20694;-82
2021/06/26 06:20:45;;;;;;;4.10;3.25;;;19.40;99.90;;;;;;4994568;28;20161;-82
2021/06/26 06:23:11;;;;;;;3.72;3.03;;;19.60;99.90;;;;;;5009446;28;20566;-86
2021/06/26 06:25:36;;;;;;;5.82;3.30;;;19.60;99.90;;;;;;4994490;28;20227;-81
2021/06/26 06:28:03;;;;;;;7.35;3.60;;;19.60;99.90;;;;;;4996708;28;20256;-85
2021/06/26 06:30:31;;;;;;;6.07;3.65;;;19.80;99.90;;;;;;5011732;28;20271;-82
2021/06/26 06:33:00;;;;;;;7.57;3.38;;;19.80;99.90;;;;;;5011813;28;20195;-82
2021/06/26 06:35:26;;;;;;;7.60;3.20;;;19.70;99.90;;;;;;4997614;28;20169;-83
2021/06/26 06:37:52;;;;;;;10.15;4.70;;;19.80;99.90;;;;;;5011465;28;20208;-87
2021/06/26 06:40:18;;;;;;;8.32;4.97;;;19.90;99.90;;;;;;5011861;28;20200;-83
2021/06/26 06:42:44;;;;;;;10.65;5.43;;;19.50;99.90;;;;;;4993357;28;20192;-81
2021/06/26 06:45:11;;;;;;;11.48;5.63;;;19.70;99.90;;;;;;4994406;28;20189;-81
2021/06/26 06:47:38;;;;;;;9.25;5.88;;;19.70;99.90;;;;;;4995748;28;20166;-82
2021/06/26 06:50:05;;;;;;;7.60;5.05;;;19.70;99.90;;;;;;4995210;28;20699;-81
2021/06/26 06:52:31;;;;;;;16.33;8.40;;;19.80;99.90;;;;;;4995537;28;20700;-91
2021/06/26 06:54:57;;;;;;;18.48;9.80;;;20.00;99.90;;;;;;4994040;28;20177;-81
2021/06/26 06:57:24;;;;;;;11.43;5.75;;;19.90;99.90;;;;;;4994634;28;20212;-84
2021/06/26 06:59:54;;;;;;;9.68;6.68;;;20.00;99.90;;;;;;4995665;28;20177;-87
2021/06/26 07:02:20;;;;;;;12.38;7.80;;;20.00;99.90;;;;;;4996015;28;20189;-86
2021/06/26 07:04:46;;;;;;;19.70;10.43;;;20.00;99.90;;;;;;4996275;28;20181;-87
2021/06/26 07:07:13;;;;;;;20.42;10.10;;;19.90;99.90;;;;;;4997352;28;20165;-85
2021/06/26 07:09:39;;;;;;;14.40;9.93;;;20.10;99.90;;;;;;4995309;28;20187;-84
2021/06/26 07:12:05;;;;;;;16.67;10.02;;;20.20;99.90;;;;;;4993072;28;20271;-87
2021/06/26 07:14:31;;;;;;;14.48;9.57;;;20.20;99.90;;;;;;4995812;28;20173;-88
2021/06/26 07:16:58;;;;;;;20.30;9.73;;;20.00;99.90;;;;;;4995192;28;20197;-84
2021/06/26 07:19:24;;;;;;;10.63;8.73;;;20.00;99.90;;;;;;4994353;28;20182;-91
2021/06/26 07:21:50;;;;;;;12.60;8.60;;;20.40;99.90;;;;;;4993572;28;20652;-88
2021/06/26 07:24:15;;;;;;;21.92;11.40;;;20.90;99.90;;;;;;4994625;28;20638;-85
2021/06/26 07:26:41;;;;;;;12.30;9.23;;;21.00;99.90;;;;;;4993841;28;20622;-85
2021/06/26 07:29:07;;;;;;;15.55;11.02;;;21.40;99.90;;;;;;4977116;28;20510;-85
2021/06/26 07:31:33;;;;;;;12.30;8.30;;;21.50;99.90;;;;;;4993695;28;20174;-86
2021/06/26 07:33:59;;;;;;;13.63;8.95;;;21.60;99.90;;;;;;4994387;28;20169;-84
2021/06/26 07:36:25;;;;;;;18.10;12.05;;;21.00;99.90;;;;;;4993019;28;20569;-88
2021/06/26 07:38:51;;;;;;;24.40;12.70;;;21.10;99.90;;;;;;4993292;28;20264;-84
2021/06/26 07:41:17;;;;;;;24.90;13.75;;;21.20;99.90;;;;;;4994340;28;20259;-86
2021/06/26 07:43:43;;;;;;;17.63;12.57;;;21.40;99.90;;;;;;4994029;28;20188;-84
2021/06/26 07:46:09;;;;;;;17.98;12.65;;;21.20;99.90;;;;;;4992885;28;20193;-85
2021/06/26 07:48:35;;;;;;;24.23;13.15;;;20.90;99.90;;;;;;4992748;28;20269;-84
2021/06/26 07:51:02;;;;;;;15.68;12.05;;;21.30;99.90;;;;;;4993114;28;20712;-89
2021/06/26 07:53:27;;;;;;;15.00;11.35;;;21.70;99.90;;;;;;4994086;28;20284;-88
2021/06/26 07:55:53;;;;;;;15.20;10.98;;;21.90;99.90;;;;;;4992296;28;20196;-85
2021/06/26 07:58:27;;;;;;;20.38;11.73;;;22.20;99.90;;;;;;4993973;28;20244;-87
2021/06/26 08:00:55;;;;;;;22.85;12.15;;;22.40;99.90;;;;;;4997573;28;20201;-88
2021/06/26 08:03:22;;;;;;;19.17;14.90;;;22.60;99.90;;;;;;4999119;28;20196;-88
2021/06/26 08:05:48;;;;;;;24.48;15.50;;;22.60;99.90;;;;;;5011107;28;20156;-89
2021/06/26 08:08:15;;;;;;;23.58;16.17;;;22.60;99.90;;;;;;5016547;28;20626;-92
2021/06/26 08:10:40;;;;;;;23.15;17.77;;;22.90;99.90;;;;;;5015519;28;20169;-85
2021/06/26 08:13:07;;;;;;;22.08;16.23;;;23.00;99.90;;;;;;5014052;28;20257;-86
2021/06/26 08:15:36;;;;;;;19.20;16.00;;;22.90;99.90;;;;;;5007520;28;20638;-91
2021/06/26 08:18:03;;;;;;;21.17;15.77;;;22.40;99.90;;;;;;5000728;28;20212;-90
2021/06/26 08:20:29;;;;;;;22.70;17.25;;;22.10;99.90;;;;;;5000316;28;20174;-92
2021/06/26 08:22:55;;;;;;;22.83;16.58;;;22.40;99.90;;;;;;4999784;28;20196;-93
2021/06/26 08:25:21;;;;;;;20.17;15.02;;;22.10;99.90;;;;;;5001831;28;20518;-94
2021/06/26 08:27:47;;;;;;;19.20;15.48;;;22.40;99.90;;;;;;4998949;28;20169;-91
2021/06/26 08:30:13;;;;;;;25.40;16.65;;;22.60;99.90;;;;;;4997884;28;20224;-96
2021/06/26 08:32:38;;;;;;;19.10;16.10;;;22.90;99.90;;;;;;4997567;28;20189;-96
2021/06/26 08:35:05;;;;;;;23.77;15.55;;;22.70;99.90;;;;;;4997426;28;20180;-92
2021/06/26 08:37:30;;;;;;;20.05;15.93;;;22.40;99.90;;;;;;5003694;28;20212;-93
2021/06/26 08:39:56;;;;;;;24.88;16.45;;;22.30;99.90;;;;;;4997497;28;20173;-91
2021/06/26 08:42:21;;;;;;;26.85;16.10;;;22.30;99.90;;;;;;4998251;28;20197;-93
2021/06/26 08:44:49;;;;;;;21.38;15.65;;;22.50;99.90;;;;;;4999382;28;20542;-93
2021/06/26 08:47:15;;;;;;;22.00;15.70;;;22.40;99.90;;;;;;5017768;28;20208;-93
2021/06/26 08:49:41;;;;;;;22.30;16.05;;;23.00;99.90;;;;;;5016035;28;20188;-89
2021/06/26 08:52:07;;;;;;;19.80;16.05;;;23.30;99.90;;;;;;5006573;28;20678;-93
2021/06/26 08:54:33;;;;;;;24.23;16.85;;;23.60;99.90;;;;;;5004583;28;20196;-90
2021/06/26 08:56:59;;;;;;;17.77;15.63;;;23.20;99.90;;;;;;5001023;28;20212;-90
2021/06/26 08:59:24;;;;;;;18.20;15.48;;;23.10;99.90;;;;;;5000612;28;20157;-89
2021/06/26 09:01:50;;;;;;;21.10;16.63;;;22.90;99.90;;;;;;4997941;28;20169;-82
2021/06/26 09:04:19;;;;;;;20.77;16.40;;;22.70;99.90;;;;;;4998909;28;20169;-83
2021/06/26 09:06:49;;;;;;;23.90;16.17;;;23.10;99.90;;;;;;4999662;28;20161;-83
2021/06/26 09:09:15;;;;;;;22.83;15.88;;;23.20;99.90;;;;;;5014758;28;20223;-83
2021/06/26 09:11:40;;;;;;;23.73;15.25;;;23.20;99.90;;;;;;4997891;28;20173;-84
2021/06/26 09:14:19;;;;;;;21.77;16.75;;;22.60;99.90;;;;;;4997950;28;20180;-83
2021/06/26 09:16:51;;;;;;;22.05;16.35;;;22.50;99.90;;;;;;5002053;28;20278;-83
2021/06/26 09:19:17;;;;;;;19.08;15.25;;;22.60;99.90;;;;;;4996656;28;20185;-87
2021/06/26 09:21:53;;;;;;;20.65;16.00;;;22.70;99.90;;;;;;5004541;28;20184;-84
2021/06/26 09:24:19;;;;;;;18.58;15.13;;;22.90;99.90;;;;;;4994980;28;20158;-87
2021/06/26 09:26:59;;;;;;;19.20;14.05;;;22.90;99.90;;;;;;4978698;28;20657;-88
2021/06/26 09:29:26;;;;;;;24.02;16.38;;;22.90;99.90;;;;;;4986938;28;20175;-89
2021/06/26 09:31:54;;;;;;;20.95;15.50;;;23.00;99.90;;;;;;4995922;28;20165;-90
2021/06/26 09:34:24;;;;;;;24.90;15.93;;;22.90;99.90;;;;;;4997383;28;20230;-84
2021/06/26 09:37:00;;;;;;;16.42;13.43;;;23.00;99.90;;;;;;4997068;28;20300;-90
2021/06/26 09:39:40;;;;;;;23.25;14.77;;;22.70;99.90;;;;;;5002490;28;20169;-88
2021/06/26 09:42:27;;;;;;;26.70;15.55;;;22.50;99.90;;;;;;4977065;28;20194;-90
2021/06/26 09:44:58;;;;;;;17.05;13.82;;;22.90;99.90;;;;;;4972151;28;20280;-86
2021/06/26 09:47:37;;;;;;;22.58;15.10;;;23.20;99.90;;;;;;4977963;28;20608;-88
2021/06/26 09:50:23;;;;;;;16.48;14.45;;;23.40;99.90;;;;;;4977420;28;20241;-84
2021/06/26 09:52:50;;;;;;;17.20;14.93;;;23.20;99.90;;;;;;4994329;28;20196;-90
2021/06/26 09:55:32;;;;;;;20.60;14.07;;;23.60;99.90;;;;;;4994980;28;20169;-85
2021/06/26 09:58:09;;;;;;;25.13;15.27;;;23.90;99.90;;;;;;4978284;28;20296;-88
2021/06/26 10:00:36;;;;;;;17.23;13.80;;;24.30;99.90;;;;;;4977293;28;20529;-86
2021/06/26 10:03:02;;;;;;;25.83;15.63;;;24.80;99.90;;;;;;4975971;28;20198;-88
2021/06/26 10:05:29;;;;;;;23.27;14.70;;;25.00;99.90;;;;;;4976173;28;20169;-87
2021/06/26 10:07:59;;;;;;;24.42;15.88;;;25.30;99.90;;;;;;4977097;28;20615;-88
2021/06/26 10:10:24;;;;;;;23.88;15.02;;;25.10;99.90;;;;;;4976377;28;20169;-88
2021/06/26 10:12:52;;;;;;;20.02;16.42;;;25.30;99.90;;;;;;4976439;28;20232;-88
2021/06/26 10:15:19;;;;;;;18.60;14.05;;;25.40;99.90;;;;;;4975832;28;20178;-88
2021/06/26 10:17:46;;;;;;;20.98;15.95;;;25.60;99.90;;;;;;4975707;28;20206;-84
2021/06/26 10:20:14;;;;;;;17.48;15.63;;;25.60;99.90;;;;;;4976000;28;20253;-83
2021/06/26 10:22:52;;;;;;;19.50;15.55;;;25.80;99.90;;;;;;4975605;28;20186;-83
2021/06/26 10:25:18;;;;;;;24.65;15.82;;;25.80;99.90;;;;;;4975798;28;20192;-86
2021/06/26 10:30:18;;;;;;;21.90;16.10;;;26.50;99.90;;;;;;4958380;28;20177;-85
2021/06/26 10:32:51;;;;;;;20.15;15.02;;;26.40;99.90;;;;;;4976888;28;20211;-88
2021/06/26 10:35:16;;;;;;;17.50;15.70;;;26.10;99.90;;;;;;4992359;28;20169;-88
2021/06/26 10:37:42;;;;;;;21.42;15.82;;;25.80;99.90;;;;;;4994351;28;20282;-89
2021/06/26 10:40:09;;;;;;;19.35;15.90;;;26.00;99.90;;;;;;4994410;28;20573;-89
2021/06/26 10:42:39;;;;;;;20.45;16.20;;;26.00;99.90;;;;;;4994871;28;20251;-83
2021/06/26 10:45:28;;;;;;;16.92;15.18;;;25.70;99.90;;;;;;4993884;28;20674;-87
2021/06/26 10:47:54;;;;;;;17.70;15.07;;;25.80;99.90;;;;;;4994475;28;20215;-87
2021/06/26 10:50:22;;;;;;;18.05;14.48;;;26.10;99.90;;;;;;4994265;28;20169;-88
2021/06/26 10:52:57;;;;;;;18.77;14.95;;;26.40;99.90;;;;;;4995388;28;20200;-83
2021/06/26 10:55:29;;;;;;;17.55;14.32;;;26.10;99.90;;;;;;4994556;28;20177;-84
2021/06/26 10:57:55;;;;;;;18.42;15.30;;;26.20;99.90;;;;;;5008550;28;20255;-82
2021/06/26 11:00:38;;;;;;;18.60;14.35;;;26.30;99.90;;;;;;4994471;28;20710;-82
2021/06/26 11:03:06;;;;;;;17.15;15.35;;;26.40;99.90;;;;;;4995008;28;20196;-82
2021/06/26 11:05:36;;;;;;;20.23;15.07;;;26.40;99.90;;;;;;4993774;28;20514;-82
2021/06/26 11:08:22;;;;;;;22.75;15.45;;;26.40;99.90;;;;;;4994870;28;20173;-83
2021/06/26 11:10:55;;;;;;;16.33;14.48;;;26.40;99.90;;;;;;4993940;28;20213;-83
2021/06/26 11:13:23;;;;;;;18.92;15.15;;;26.50;99.90;;;;;;4992974;28;20192;-83
2021/06/26 11:15:48;;;;;;;17.02;15.00;;;26.10;99.90;;;;;;4993020;28;20169;-82
2021/06/26 11:18:15;;;;;;;18.95;15.15;;;26.00;99.90;;;;;;5008135;28;20213;-82
2021/06/26 11:20:42;;;;;;;21.58;16.08;;;25.80;99.90;;;;;;4994696;28;20633;-81
2021/06/26 11:23:14;;;;;;;33.65;16.65;;;25.60;99.90;;;;;;4996192;28;20268;-90
2021/06/26 11:25:39;;;;;;;18.05;16.15;;;25.10;99.90;;;;;;4995180;28;20204;-91
2021/06/26 11:28:06;;;;;;;18.33;15.02;;;25.40;99.90;;;;;;4995429;28;20177;-91
2021/06/26 11:30:33;;;;;;;18.42;15.25;;;25.80;99.90;;;;;;4995283;28;20182;-90
2021/06/26 11:32:59;;;;;;;21.98;15.32;;;25.90;99.90;;;;;;4995904;28;20592;-90
2021/06/26 11:35:38;;;;;;;16.45;14.68;;;25.80;99.90;;;;;;4995659;28;20169;-89
2021/06/26 11:38:05;;;;;;;21.42;16.48;;;26.10;99.90;;;;;;4995283;28;20681;-87
2021/06/26 11:40:32;;;;;;;18.48;16.23;;;26.20;99.90;;;;;;4994227;28;20165;-90
2021/06/26 11:43:02;;;;;;;16.73;15.15;;;26.40;99.90;;;;;;4994557;28;20291;-91
2021/06/26 11:45:33;;;;;;;17.35;15.38;;;26.60;99.90;;;;;;4994175;28;20177;-90
2021/06/26 11:48:05;;;;;;;18.13;15.05;;;26.20;99.90;;;;;;4994084;28;20169;-90
2021/06/26 11:50:32;;;;;;;17.92;14.88;;;26.40;99.90;;;;;;5011336;28;20260;-90
2021/06/26 11:53:10;;;;;;;14.82;13.45;;;26.30;99.90;;;;;;4994411;28;20285;-89
2021/06/26 11:55:55;;;;;;;23.75;16.67;;;26.10;99.90;;;;;;4994594;28;20282;-94
2021/06/26 11:58:21;;;;;;;23.33;15.25;;;26.00;99.90;;;;;;4995037;28;20197;-96
2021/06/26 12:01:07;;;;;;;19.25;15.77;;;25.80;99.90;;;;;;4995594;28;20180;-95
2021/06/26 12:03:33;;;;;;;18.73;14.60;;;25.40;99.90;;;;;;4996082;28;20271;-94
2021/06/26 12:06:04;;;;;;;17.25;14.40;;;25.50;99.90;;;;;;4992912;28;20180;-82
2021/06/26 12:08:48;;;;;;;20.73;15.07;;;25.40;99.90;;;;;;4994098;28;20173;-87
2021/06/26 12:11:19;;;;;;;21.27;14.65;;;25.30;99.90;;;;;;4992753;28;20515;-85
2021/06/26 12:13:47;;;;;;;24.73;14.57;;;25.10;99.90;;;;;;4993347;28;20271;-86
2021/06/26 12:16:20;;;;;;;18.52;15.20;;;24.90;99.90;;;;;;4992753;28;20177;-86
2021/06/26 12:18:55;;;;;;;20.20;15.00;;;24.50;99.90;;;;;;4994490;28;20165;-87
2021/06/26 12:21:27;;;;;;;20.85;15.70;;;24.30;99.90;;;;;;4994690;28;20255;-85
2021/06/26 12:23:54;;;;;;;19.30;14.32;;;24.20;99.90;;;;;;4993304;28;20188;-86
2021/06/26 12:26:20;;;;;;;22.70;15.73;;;24.40;99.90;;;;;;4993219;28;20169;-83
2021/06/26 12:28:46;;;;;;;16.13;13.50;;;24.50;99.90;;;;;;5008096;28;20232;-82
2021/06/26 12:31:12;;;;;;;16.25;14.48;;;24.60;99.90;;;;;;4992104;28;20166;-83
2021/06/26 12:33:39;;;;;;;19.60;14.57;;;25.00;99.90;;;;;;4992965;28;20225;-84
2021/06/26 12:36:18;;;;;;;16.95;14.63;;;25.10;99.90;;;;;;4991611;28;20582;-84
2021/06/26 12:38:45;;;;;;;16.92;14.20;;;25.30;99.90;;;;;;4991901;28;20195;-84
2021/06/26 12:41:31;;;;;;;15.68;13.40;;;25.20;99.90;;;;;;4992715;28;20257;-82